Time;durP1;ratioP1;P1;durP2;ratioP2;P2;SDS_P1;SDS_P2;PMS_P1;PMS_P2;Temp;Humidity;BMP_temperature;BMP_pressure;BME280_temperature;BME280_humidity;BME280_pressure;Samples;Min_cycle;Max_cycle;Signal;HPM_P1;HPM_P2
2022/01/28 00:00:30;;;;;;;3.33;0.60;;;;;;;4.86;89.25;98811.19;5054831;28;20080;-60
2022/01/28 00:02:52;;;;;;;3.65;0.50;;;;;;;4.90;89.03;98802.44;5056654;28;20131;-60
2022/01/28 00:05:20;;;;;;;0.90;0.30;;;;;;;4.87;88.28;98807.72;5054529;28;20072;-60
2022/01/28 00:07:46;;;;;;;1.75;0.52;;;;;;;4.88;89.78;98799.03;5053057;28;20488;-60
2022/01/28 00:10:12;;;;;;;1.13;0.30;;;;;;;4.91;90.06;98814.56;5054623;28;20044;-59
2022/01/28 00:12:50;;;;;;;1.27;0.30;;;;;;;4.87;90.16;98807.72;5046159;28;20241;-60
2022/01/28 00:15:32;;;;;;;1.38;0.38;;;;;;;4.80;89.50;98806.16;5034260;28;20439;-60
2022/01/28 00:37:10;;;;;;;0.30;0.10;;;;;;;4.28;94.90;98820.31;5035889;28;20508;-60
2022/01/28 00:39:36;;;;;;;1.95;0.10;;;;;;;4.18;94.92;98817.03;5034068;28;20044;-59
2022/01/28 00:42:01;;;;;;;2.53;0.80;;;;;;;4.02;95.95;98816.50;5034159;28;20037;-59
2022/01/28 00:44:27;;;;;;;2.25;0.60;;;;;;;4.05;95.48;98821.63;5033929;28;20037;-59
2022/01/28 00:46:52;;;;;;;0.80;0.40;;;;;;;3.96;95.49;98829.63;5034555;28;20041;-59
2022/01/28 00:49:18;;;;;;;1.77;0.40;;;;;;;4.01;95.61;98795.75;5033713;28;20052;-59
2022/01/28 00:51:44;;;;;;;0.60;0.20;;;;;;;4.01;96.54;98809.59;5033764;28;20039;-59
2022/01/28 00:54:09;;;;;;;1.15;0.25;;;;;;;4.01;95.71;98814.78;5033710;28;20037;-59
2022/01/28 00:56:35;;;;;;;1.33;0.10;;;;;;;4.06;95.77;98822.47;5041213;28;20090;-59
2022/01/28 00:59:00;;;;;;;0.30;0.10;;;;;;;4.02;95.12;98815.63;5052338;28;20029;-59
2022/01/28 01:01:29;;;;;;;1.13;0.50;;;;;;;3.93;95.36;98807.13;5033618;28;20105;-60
2022/01/28 01:03:58;;;;;;;0.68;0.17;;;;;;;3.88;95.49;98827.16;5033425;28;20404;-60
2022/01/28 01:06:24;;;;;;;0.38;0.10;;;;;;;3.79;95.70;98829.06;5042145;28;20033;-60
2022/01/28 01:08:49;;;;;;;0.82;0.20;;;;;;;3.76;96.34;98823.97;5052982;28;20035;-60
2022/01/28 01:11:19;;;;;;;0.40;0.10;;;;;;;3.78;96.97;98832.56;5039228;28;20041;-60
2022/01/28 01:13:44;;;;;;;0.43;0.17;;;;;;;3.60;96.91;98837.22;5036616;28;20033;-60
2022/01/28 01:16:13;;;;;;;0.20;0.10;;;;;;;3.70;97.53;98833.56;5045563;28;20029;-60
2022/01/28 01:18:51;;;;;;;0.55;0.15;;;;;;;3.68;97.50;98829.28;5039509;28;20485;-61
2022/01/28 01:21:22;;;;;;;0.88;0.20;;;;;;;3.77;98.04;98830.84;5033698;28;20034;-60
2022/01/28 01:23:52;;;;;;;0.10;0.10;;;;;;;3.58;98.86;98845.91;5033532;28;20129;-60
2022/01/28 01:26:18;;;;;;;0.00;0.00;;;;;;;3.66;98.79;98847.47;5050287;28;20025;-60
2022/01/28 01:28:43;;;;;;;0.00;0.00;;;;;;;3.63;98.65;98850.16;5053485;28;20029;-60
2022/01/28 01:31:16;;;;;;;0.05;0.00;;;;;;;3.57;99.06;98842.47;5038590;28;20045;-60
2022/01/28 01:33:48;;;;;;;;;;;;;;;3.50;99.19;98843.44;5033850;28;20440;-60
2022/01/28 01:36:13;;;;;;;0.17;0.10;;;;;;;3.56;99.82;98843.34;5033789;28;19909;-60
2022/01/28 01:38:40;;;;;;;0.10;0.08;;;;;;;3.56;99.45;98853.75;5034443;28;20540;-60
2022/01/28 01:41:12;;;;;;;0.10;0.00;;;;;;;3.46;100.00;98853.03;5033371;28;20120;-60
2022/01/28 01:54:20;;;;;;;0.03;0.00;;;;;;;3.51;99.80;98863.38;5033353;28;20044;-60
2022/01/28 01:56:47;;;;;;;0.00;0.00;;;;;;;3.33;100.00;98882.69;5044325;28;20033;-61
2022/01/28 01:59:12;;;;;;;0.35;0.10;;;;;;;3.39;100.00;98876.53;5053354;28;20029;-60
2022/01/28 02:01:39;;;;;;;0.22;0.10;;;;;;;3.36;100.00;98881.78;5051903;28;20043;-60
2022/01/28 02:04:05;;;;;;;0.10;0.10;;;;;;;3.42;100.00;98885.13;5036924;28;20045;-60
2022/01/28 02:06:30;;;;;;;0.25;0.00;;;;;;;3.35;100.00;98883.53;5037062;28;20513;-60
2022/01/28 02:08:56;;;;;;;0.75;0.10;;;;;;;3.41;100.00;98892.94;5047309;28;20064;-60
2022/01/28 02:11:21;;;;;;;0.13;0.00;;;;;;;3.39;100.00;98899.91;5053973;28;20115;-60
2022/01/28 02:13:49;;;;;;;0.10;0.00;;;;;;;3.33;100.00;98902.59;5054904;28;20499;-60
2022/01/28 02:16:16;;;;;;;0.25;0.10;;;;;;;3.31;100.00;98899.16;5037919;28;20037;-60
2022/01/28 02:18:41;;;;;;;0.10;0.10;;;;;;;3.35;100.00;98903.41;5037097;28;20029;-60
2022/01/28 02:21:10;;;;;;;0.98;0.20;;;;;;;3.45;100.00;98905.00;5036595;28;20393;-60
2022/01/28 02:23:36;;;;;;;0.38;0.10;;;;;;;3.58;100.00;98914.28;5045487;28;20033;-60
2022/01/28 02:26:03;;;;;;;0.93;0.10;;;;;;;3.62;100.00;98909.91;5037080;28;20055;-60
2022/01/28 02:28:33;;;;;;;0.40;0.20;;;;;;;3.81;100.00;98916.50;5052413;28;20040;-60
2022/01/28 02:31:04;;;;;;;1.55;0.20;;;;;;;3.94;100.00;98911.94;5041409;28;20072;-60
2022/01/28 02:33:30;;;;;;;0.80;0.20;;;;;;;3.94;100.00;98923.19;5036667;28;20076;-60
2022/01/28 02:35:56;;;;;;;0.50;0.20;;;;;;;4.00;100.00;98927.44;5036530;28;20029;-60
2022/01/28 02:38:23;;;;;;;1.90;0.20;;;;;;;4.16;99.66;98926.25;5041023;28;20389;-60
2022/01/28 02:40:55;;;;;;;1.10;0.22;;;;;;;4.28;99.67;98926.94;5056359;28;20108;-60
2022/01/28 02:45:47;;;;;;;1.70;0.30;;;;;;;4.32;99.85;98928.56;5038559;28;20294;-60
2022/01/28 02:48:19;;;;;;;1.60;0.30;;;;;;;4.37;99.63;98944.94;5036093;28;20048;-60
2022/01/28 02:53:26;;;;;;;1.42;0.28;;;;;;;4.54;98.65;98940.25;5056208;28;20495;-60
2022/01/28 02:55:58;;;;;;;2.25;0.43;;;;;;;4.56;97.82;98946.28;5052261;28;20041;-60
2022/01/28 02:58:25;;;;;;;0.45;0.20;;;;;;;4.61;97.74;98947.06;5036221;28;20149;-60
2022/01/28 03:00:53;;;;;;;1.98;0.30;;;;;;;4.52;96.84;98962.84;5035964;28;20033;-60
2022/01/28 03:03:19;;;;;;;2.85;0.40;;;;;;;4.59;97.14;98969.66;5051193;28;20061;-60
2022/01/28 03:05:46;;;;;;;0.75;0.25;;;;;;;4.61;96.92;98978.28;5056169;28;20522;-60
2022/01/28 03:08:12;;;;;;;0.88;0.30;;;;;;;4.59;96.99;98969.66;5043491;28;20037;-60
2022/01/28 03:15:54;;;;;;;0.85;0.43;;;;;;;4.49;97.30;98998.47;5054500;28;20483;-60
2022/01/28 03:18:25;;;;;;;0.25;0.10;;;;;;;4.48;98.52;98997.63;5036614;28;20051;-59
2022/01/28 03:23:16;;;;;;;0.50;0.20;;;;;;;4.38;98.67;99006.47;5035593;28;20033;-60
2022/01/28 03:25:43;;;;;;;0.93;0.30;;;;;;;4.26;99.67;99017.94;5046046;28;20499;-59
2022/01/28 03:28:09;;;;;;;0.50;0.20;;;;;;;4.22;98.69;99011.06;5055460;28;20048;-60
2022/01/28 03:30:35;;;;;;;0.98;0.25;;;;;;;4.31;99.34;99023.06;5040051;28;20440;-60
2022/01/28 03:33:00;;;;;;;0.65;0.20;;;;;;;4.24;99.45;99029.28;5035435;28;20048;-60
2022/01/28 03:35:25;;;;;;;0.30;0.20;;;;;;;4.24;99.53;99050.94;5035438;28;20033;-60
2022/01/28 03:37:59;;;;;;;0.55;0.20;;;;;;;4.19;100.00;99057.97;5052703;28;20479;-60
2022/01/28 03:40:24;;;;;;;;;;;;;;;4.14;100.00;99055.41;5055622;28;20045;-60
2022/01/28 03:42:50;;;;;;;1.27;0.20;;;;;;;4.16;99.99;99064.06;5054707;28;19939;-60
2022/01/28 03:45:15;;;;;;;0.30;0.13;;;;;;;4.18;100.00;99077.88;5055483;28;20044;-60
2022/01/28 03:47:40;;;;;;;0.88;0.20;;;;;;;4.18;100.00;99093.47;5048919;28;20036;-60
2022/01/28 03:50:06;;;;;;;0.70;0.20;;;;;;;4.09;100.00;99084.97;5034879;28;20470;-60
2022/01/28 03:52:32;;;;;;;0.35;0.20;;;;;;;4.01;100.00;99125.81;5035042;28;20041;-60
2022/01/28 03:54:57;;;;;;;0.20;0.10;;;;;;;3.97;100.00;99118.97;5054620;28;20037;-60
2022/01/28 03:57:23;;;;;;;0.95;0.20;;;;;;;3.93;100.00;99107.75;5052441;28;20477;-59
2022/01/28 03:59:48;;;;;;;0.28;0.20;;;;;;;3.88;100.00;99109.56;5048591;28;20037;-60
2022/01/28 04:02:18;;;;;;;0.50;0.20;;;;;;;3.89;100.00;99121.66;5053466;28;20489;-60
2022/01/28 04:12:51;;;;;;;0.15;0.10;;;;;;;3.66;100.00;99174.78;5054799;28;20044;-60
2022/01/28 04:18:00;;;;;;;0.70;0.20;;;;;;;3.67;100.00;99186.03;5038045;28;20131;-59
2022/01/28 04:20:25;;;;;;;0.68;0.20;;;;;;;3.59;100.00;99182.69;5045857;28;20400;-60
2022/01/28 04:22:51;;;;;;;0.28;0.10;;;;;;;3.51;100.00;99242.53;5042301;28;20423;-60
2022/01/28 04:25:16;;;;;;;0.20;0.20;;;;;;;3.54;100.00;99224.28;5033351;28;20116;-60
2022/01/28 04:27:41;;;;;;;0.47;0.20;;;;;;;3.42;100.00;99227.03;5045478;28;20032;-59
2022/01/28 04:30:07;;;;;;;0.20;0.10;;;;;;;3.42;100.00;99240.03;5049587;28;20453;-61
2022/01/28 04:32:34;;;;;;;0.30;0.13;;;;;;;3.41;100.00;99249.56;5043338;28;20034;-61
2022/01/28 04:34:59;;;;;;;3.20;2.15;;;;;;;3.34;100.00;99247.03;5052845;28;20045;-59
2022/01/28 04:37:52;;;;;;;3.53;2.13;;;;;;;3.19;100.00;99268.81;5053468;28;20120;-60
2022/01/28 04:40:16;;;;;;;2.40;1.50;;;;;;;3.28;100.00;99273.06;5033762;28;20037;-60
2022/01/28 04:45:45;;;;;;;2.95;1.63;;;;;;;3.17;100.00;99276.63;5053979;28;20039;-60
2022/01/28 04:48:30;;;;;;;4.55;1.77;;;;;;;3.23;100.00;99288.66;5039594;28;20041;-60
2022/01/28 04:53:42;;;;;;;3.03;0.88;;;;;;;3.28;100.00;99309.44;5048204;28;20053;-60
2022/01/28 05:27:10;;;;;;;1.75;0.50;;;;;;;3.20;100.00;99389.97;5038863;28;20481;-60
2022/01/28 05:29:36;;;;;;;1.27;0.70;;;;;;;3.26;100.00;99391.63;5047228;28;20033;-60
2022/01/28 05:32:02;;;;;;;2.22;0.70;;;;;;;3.17;100.00;99410.75;5048089;28;20037;-60
2022/01/28 05:34:28;;;;;;;1.00;0.50;;;;;;;3.16;100.00;99420.28;5042925;28;20133;-61
2022/01/28 05:36:55;;;;;;;1.33;0.60;;;;;;;3.18;100.00;99433.22;5048995;28;20587;-61
2022/01/28 05:39:20;;;;;;;1.67;0.80;;;;;;;3.18;100.00;99456.59;5049531;28;20473;-61
2022/01/28 05:41:46;;;;;;;0.90;0.40;;;;;;;3.09;100.00;99473.09;5049865;28;20059;-61
2022/01/28 05:44:11;;;;;;;2.30;0.88;;;;;;;3.20;100.00;99467.84;5045250;28;20059;-60
2022/01/28 05:46:37;;;;;;;1.00;0.60;;;;;;;3.21;100.00;99464.38;5043161;28;20045;-60
2022/01/28 05:49:03;;;;;;;0.80;0.43;;;;;;;3.18;100.00;99486.00;5046178;28;20037;-60
2022/01/28 05:51:28;;;;;;;0.82;0.50;;;;;;;3.14;100.00;99481.72;5050763;28;20115;-60
2022/01/28 05:53:57;;;;;;;1.25;0.60;;;;;;;3.07;100.00;99503.41;5056794;28;20099;-61
2022/01/28 05:56:23;;;;;;;1.10;0.55;;;;;;;3.01;100.00;99489.59;5057052;28;20071;-60
2022/01/28 05:58:48;;;;;;;1.20;0.60;;;;;;;3.01;100.00;99520.72;5055894;28;20125;-60
2022/01/28 06:01:14;;;;;;;2.72;1.65;;;;;;;2.95;100.00;99526.78;5055740;28;20048;-61
2022/01/28 06:03:42;;;;;;;2.25;1.10;;;;;;;2.92;100.00;99555.38;5056414;28;20057;-61
2022/01/28 06:06:12;;;;;;;1.35;0.50;;;;;;;2.91;100.00;99558.81;5055676;28;20384;-60
2022/01/28 06:08:37;;;;;;;2.05;0.40;;;;;;;2.92;100.00;99547.59;5056871;28;20037;-60
2022/01/28 06:11:03;;;;;;;1.13;0.60;;;;;;;2.98;100.00;99565.72;5056525;28;20031;-60
2022/01/28 06:13:28;;;;;;;1.38;0.63;;;;;;;2.96;100.00;99559.69;5057316;28;20416;-60
2022/01/28 06:15:56;;;;;;;1.25;0.93;;;;;;;2.87;100.00;99563.19;5057152;28;20041;-60
2022/01/28 06:18:21;;;;;;;3.90;2.50;;;;;;;2.86;100.00;99569.22;5056838;28;20041;-59
2022/01/28 06:20:46;;;;;;;9.00;5.20;;;;;;;2.93;100.00;99570.06;5056513;28;20366;-59
2022/01/28 06:23:12;;;;;;;10.02;5.55;;;;;;;2.89;100.00;99594.31;5056545;28;20120;-59
2022/01/28 06:25:39;;;;;;;6.40;3.05;;;;;;;2.82;100.00;99601.22;5056522;28;20041;-59
2022/01/28 06:28:04;;;;;;;17.63;10.02;;;;;;;2.88;100.00;99626.31;5057118;28;20060;-59
2022/01/28 06:30:30;;;;;;;5.18;3.45;;;;;;;2.89;100.00;99607.28;5055654;28;20060;-60
2022/01/28 06:32:55;;;;;;;4.05;2.45;;;;;;;2.86;100.00;99615.06;5055354;28;20040;-60
2022/01/28 06:35:21;;;;;;;3.35;1.98;;;;;;;2.86;100.00;99628.03;5055824;28;20064;-61
2022/01/28 06:37:46;;;;;;;1.80;1.10;;;;;;;2.70;100.00;99622.88;5055068;28;20051;-60
2022/01/28 06:40:15;;;;;;;1.08;0.50;;;;;;;2.58;100.00;99651.41;5055873;28;20029;-60
2022/01/28 06:42:41;;;;;;;0.80;0.60;;;;;;;2.77;100.00;99649.69;5053672;28;20033;-60
2022/01/28 06:45:07;;;;;;;0.95;0.40;;;;;;;2.75;100.00;99661.78;5053421;28;20443;-60
2022/01/28 06:47:35;;;;;;;1.58;0.98;;;;;;;2.70;100.00;99660.91;5054224;28;20040;-60
2022/01/28 06:50:02;;;;;;;1.25;0.60;;;;;;;2.71;100.00;99666.13;5054937;28;20033;-60
2022/01/28 06:52:28;;;;;;;0.80;0.35;;;;;;;2.55;100.00;99664.38;5054698;28;20120;-60
2022/01/28 06:54:53;;;;;;;1.63;0.82;;;;;;;2.60;100.00;99678.25;5053694;28;20449;-60
2022/01/28 06:57:19;;;;;;;1.10;0.60;;;;;;;2.72;100.00;99678.22;5055169;28;20091;-60
2022/01/28 06:59:45;;;;;;;1.13;0.70;;;;;;;2.66;100.00;99698.97;5055768;28;20029;-60
2022/01/28 07:02:10;;;;;;;0.98;0.60;;;;;;;2.56;100.00;99689.47;5055427;28;20085;-60
2022/01/28 07:04:35;;;;;;;2.65;0.60;;;;;;;2.57;100.00;99688.59;5055787;28;20068;-60
2022/01/28 07:07:01;;;;;;;1.00;0.60;;;;;;;2.53;100.00;99710.22;5055558;28;20108;-60
2022/01/28 07:09:27;;;;;;;1.23;0.60;;;;;;;2.51;100.00;99709.34;5056036;28;20056;-60
2022/01/28 07:11:52;;;;;;;1.63;0.70;;;;;;;2.60;100.00;99722.34;5056271;28;20033;-60
2022/01/28 07:14:18;;;;;;;0.82;0.50;;;;;;;2.60;100.00;99737.03;5055953;28;20457;-60
2022/01/28 07:16:43;;;;;;;1.77;0.65;;;;;;;2.61;100.00;99759.50;5046321;28;20495;-60
2022/01/28 07:19:09;;;;;;;2.38;1.30;;;;;;;2.59;100.00;99748.25;5035895;28;20064;-60
2022/01/28 07:21:35;;;;;;;0.90;0.60;;;;;;;2.49;100.00;99749.13;5035639;28;20096;-60
2022/01/28 07:24:00;;;;;;;11.75;7.25;;;;;;;2.69;100.00;99750.84;5040875;28;20535;-59
2022/01/28 07:26:26;;;;;;;4.10;1.75;;;;;;;2.75;100.00;99762.09;5041142;28;20045;-59
2022/01/28 07:28:52;;;;;;;2.38;1.00;;;;;;;2.76;99.29;99763.84;5041227;28;20041;-59
2022/01/28 07:31:19;;;;;;;2.47;1.10;;;;;;;2.79;98.67;99787.16;5042857;28;20440;-58
2022/01/28 07:33:44;;;;;;;1.98;1.00;;;;;;;2.96;98.30;99790.66;5030249;28;20053;-60
2022/01/28 07:36:10;;;;;;;1.33;0.60;;;;;;;2.93;96.57;99812.28;5045704;28;20226;-60
2022/01/28 07:38:35;;;;;;;1.75;0.68;;;;;;;2.89;96.68;99804.50;5050409;28;20424;-60
2022/01/28 07:41:01;;;;;;;1.15;0.43;;;;;;;2.85;96.24;99813.13;5039178;28;20033;-59
2022/01/28 07:43:27;;;;;;;1.40;0.60;;;;;;;2.86;95.73;99830.44;5045031;28;20392;-59
2022/01/28 07:45:53;;;;;;;1.65;0.60;;;;;;;2.94;95.65;99831.28;5036487;28;20035;-60
2022/01/28 07:48:19;;;;;;;3.03;0.82;;;;;;;3.11;95.80;99834.78;5044944;28;20116;-60
2022/01/28 07:50:44;;;;;;;1.63;0.80;;;;;;;3.17;94.59;99839.09;5043214;28;20029;-59
2022/01/28 07:53:14;;;;;;;1.48;0.70;;;;;;;3.19;94.50;99846.03;5041881;28;20037;-59
2022/01/28 07:55:39;;;;;;;1.45;0.80;;;;;;;3.07;92.76;99860.72;5047465;28;20041;-60
2022/01/28 07:58:05;;;;;;;2.13;0.98;;;;;;;3.07;92.47;99866.78;5036331;28;20029;-60
2022/01/28 08:00:30;;;;;;;3.08;0.82;;;;;;;3.08;91.75;99878.91;5043765;28;20029;-59
2022/01/28 08:02:55;;;;;;;1.65;0.60;;;;;;;3.14;91.46;99894.47;5045768;28;20057;-59
2022/01/28 08:05:21;;;;;;;1.50;0.65;;;;;;;3.25;89.11;99889.28;5054000;28;20423;-60
2022/01/28 08:07:47;;;;;;;2.97;0.60;;;;;;;3.43;87.73;99901.38;5050742;28;20033;-59
2022/01/28 08:10:16;;;;;;;2.67;0.60;;;;;;;3.38;87.83;99909.19;5046339;28;20080;-60
2022/01/28 08:12:52;;;;;;;2.67;0.75;;;;;;;3.52;87.35;99906.59;5037216;28;20063;-60
2022/01/28 08:15:19;;;;;;;2.65;0.57;;;;;;;3.46;88.06;99922.19;5041409;28;20125;-59
2022/01/28 08:17:45;;;;;;;2.35;0.50;;;;;;;3.55;86.63;99929.09;5048910;28;20112;-60
2022/01/28 08:20:11;;;;;;;1.20;0.45;;;;;;;3.39;86.78;99939.50;5041877;28;20049;-60
2022/01/28 08:22:52;;;;;;;1.40;0.60;;;;;;;3.39;86.04;99938.63;5039859;28;20088;-59
2022/01/28 08:25:19;;;;;;;2.03;1.00;;;;;;;3.37;86.77;99950.75;5036257;28;20041;-59
2022/01/28 08:27:46;;;;;;;5.07;3.00;;;;;;;3.31;85.82;99987.09;5041503;28;20040;-60
2022/01/28 08:30:13;;;;;;;4.97;2.60;;;;;;;3.35;85.40;99965.44;5036091;28;20100;-60
2022/01/28 08:32:39;;;;;;;2.65;2.05;;;;;;;3.35;84.91;99975.84;5040573;28;20100;-60
2022/01/28 08:35:05;;;;;;;2.03;1.13;;;;;;;3.43;84.03;99985.41;5041449;28;20037;-60
2022/01/28 08:37:31;;;;;;;1.27;0.70;;;;;;;3.45;82.91;99983.66;5033703;28;20121;-60
2022/01/28 08:39:56;;;;;;;2.42;0.80;;;;;;;3.66;81.09;99994.91;5033985;28;20112;-59
2022/01/28 08:42:22;;;;;;;0.80;0.50;;;;;;;3.69;80.91;99998.38;5034001;28;20040;-60
2022/01/28 08:44:47;;;;;;;1.65;0.70;;;;;;;3.65;80.47;100006.19;5033839;28;20030;-60
2022/01/28 08:47:14;;;;;;;4.45;2.60;;;;;;;3.69;81.26;100003.59;5036439;28;20033;-60
2022/01/28 08:49:39;;;;;;;2.97;1.50;;;;;;;3.67;78.96;100031.31;5053852;28;20124;-60
2022/01/28 08:52:05;;;;;;;2.72;1.60;;;;;;;3.81;79.00;100015.72;5034670;28;20034;-60
2022/01/28 08:54:31;;;;;;;3.95;2.50;;;;;;;3.87;77.62;100025.22;5033851;28;20047;-59
2022/01/28 08:56:56;;;;;;;3.55;2.08;;;;;;;4.10;77.17;100036.50;5033646;28;20155;-60
2022/01/28 08:59:21;;;;;;;7.20;3.10;;;;;;;4.17;77.19;100026.97;5032342;28;20083;-60
2022/01/28 09:01:47;;;;;;;3.45;1.65;;;;;;;4.36;77.88;100043.41;5033182;28;20038;-60
2022/01/28 09:04:12;;;;;;;3.95;1.60;;;;;;;4.32;76.82;100057.28;5034725;28;20029;-59
2022/01/28 09:06:37;;;;;;;1.73;0.63;;;;;;;4.31;76.28;100056.44;5053362;28;20072;-59
2022/01/28 09:09:04;;;;;;;1.95;0.60;;;;;;;4.40;75.41;100071.16;5053627;28;20037;-59
2022/01/28 09:11:33;;;;;;;1.77;0.80;;;;;;;4.43;75.48;100076.34;5052650;28;20045;-59
2022/01/28 09:13:59;;;;;;;3.90;1.25;;;;;;;4.51;75.37;100090.22;5053202;28;20389;-60
2022/01/28 09:16:24;;;;;;;3.28;1.00;;;;;;;4.38;75.03;100098.88;5053592;28;20025;-59
2022/01/28 09:18:50;;;;;;;4.18;1.30;;;;;;;4.39;74.44;100098.03;5053213;28;20056;-59
2022/01/28 09:21:16;;;;;;;3.30;1.38;;;;;;;4.40;75.48;100098.03;5053320;28;20147;-59
2022/01/28 09:23:42;;;;;;;3.17;1.23;;;;;;;4.48;74.56;100100.63;5053283;28;20076;-59
2022/01/28 09:26:08;;;;;;;2.10;0.93;;;;;;;4.67;74.68;100117.06;5053276;28;20520;-59
2022/01/28 09:28:33;;;;;;;2.05;0.80;;;;;;;4.69;73.70;100121.41;5047257;28;20108;-60
2022/01/28 09:30:59;;;;;;;1.30;0.60;;;;;;;4.74;73.81;100123.13;5033053;28;20500;-59
2022/01/28 09:33:24;;;;;;;3.20;1.38;;;;;;;4.70;73.80;100146.53;5033438;28;20025;-59
2022/01/28 09:35:50;;;;;;;2.53;1.05;;;;;;;4.78;73.30;100133.50;5033444;28;20041;-59
2022/01/28 09:38:16;;;;;;;2.40;0.73;;;;;;;4.72;72.70;100132.69;5033224;28;20041;-59
2022/01/28 09:40:42;;;;;;;2.53;1.20;;;;;;;4.75;72.75;100150.88;5033316;28;20033;-59
2022/01/28 09:43:08;;;;;;;6.97;2.00;;;;;;;4.78;73.47;100154.34;5015557;28;20041;-59
2022/01/28 09:45:35;;;;;;;4.43;2.20;;;;;;;4.92;74.95;100156.94;5032957;28;20073;-59
2022/01/28 09:48:01;;;;;;;3.25;0.88;;;;;;;4.66;78.56;100170.84;5033159;28;20080;-58
2022/01/28 09:50:31;;;;;;;3.70;1.30;;;;;;;4.37;82.33;100175.19;5033249;28;20072;-59
2022/01/28 09:52:58;;;;;;;1.50;0.77;;;;;;;4.40;84.48;100183.88;5032891;28;20415;-60
2022/01/28 09:55:25;;;;;;;3.63;1.20;;;;;;;4.24;85.12;100169.13;5047056;28;20048;-59
2022/01/28 09:57:56;;;;;;;5.45;2.38;;;;;;;4.42;84.60;100181.25;5052825;28;20094;-58
2022/01/28 10:00:25;;;;;;;5.25;1.70;;;;;;;4.58;82.73;100196.00;5049242;28;20028;-59
2022/01/28 10:02:54;;;;;;;3.30;1.33;;;;;;;4.54;81.45;100183.00;5032935;28;20066;-60
2022/01/28 10:05:35;;;;;;;3.05;1.00;;;;;;;4.41;81.35;100214.22;5034001;28;20033;-59
2022/01/28 10:08:22;;;;;;;2.10;1.00;;;;;;;4.23;83.42;100223.72;5034433;28;20033;-59
2022/01/28 10:10:52;;;;;;;2.05;0.70;;;;;;;3.88;88.64;100225.41;5034218;28;20033;-59
2022/01/28 10:13:30;;;;;;;1.02;0.30;;;;;;;3.66;92.97;100234.84;5053223;28;20483;-59
2022/01/28 10:15:55;;;;;;;1.05;0.50;;;;;;;3.58;94.89;100233.94;5052692;28;20033;-61
2022/01/28 10:18:21;;;;;;;2.38;0.52;;;;;;;3.60;96.34;100231.38;5052861;28;20152;-60
2022/01/28 10:20:46;;;;;;;1.77;0.77;;;;;;;3.69;96.76;100241.78;5052870;28;20029;-60
2022/01/28 10:23:13;;;;;;;2.22;1.20;;;;;;;3.85;95.38;100240.97;5053813;28;20029;-59
2022/01/28 10:25:42;;;;;;;5.32;1.90;;;;;;;3.80;96.30;100241.84;5056268;28;20116;-59
2022/01/28 10:28:10;;;;;;;3.15;1.20;;;;;;;3.82;94.36;100245.28;5056121;28;20425;-60
2022/01/28 10:30:39;;;;;;;2.58;1.08;;;;;;;3.81;91.74;100247.03;5056186;28;20058;-60
2022/01/28 10:33:15;;;;;;;1.40;0.70;;;;;;;3.97;92.03;100263.53;5043256;28;20465;-59
2022/01/28 10:35:55;;;;;;;1.48;0.90;;;;;;;4.29;90.64;100265.38;5046952;28;20064;-60
2022/01/28 10:38:47;;;;;;;2.40;0.80;;;;;;;4.36;87.83;100267.13;5048536;28;20029;-60
2022/01/28 10:41:15;;;;;;;1.55;0.60;;;;;;;4.28;86.32;100274.91;5044373;28;20046;-60
2022/01/28 10:43:46;;;;;;;3.20;0.93;;;;;;;4.17;85.10;100282.66;5041077;28;20037;-60
2022/01/28 10:46:12;;;;;;;2.70;0.80;;;;;;;4.13;84.56;100267.94;5045047;28;20119;-60
2022/01/28 10:48:57;;;;;;;1.70;0.90;;;;;;;4.38;84.25;100262.78;5055698;28;20473;-60
2022/01/28 10:51:38;;;;;;;2.03;0.95;;;;;;;4.20;82.62;100281.81;5041619;28;20747;-60
2022/01/28 10:54:09;;;;;;;2.05;0.80;;;;;;;4.20;83.06;100313.03;5055123;28;20377;-60
2022/01/28 10:56:56;;;;;;;1.52;0.60;;;;;;;4.26;81.80;100299.16;5040168;28;20109;-60
2022/01/28 10:59:40;;;;;;;2.60;1.15;;;;;;;4.44;82.58;100312.22;5047576;28;20040;-61
2022/01/28 11:02:06;;;;;;;2.80;1.60;;;;;;;4.56;82.51;100299.25;5040348;28;20162;-59
2022/01/28 11:04:33;;;;;;;2.20;1.60;;;;;;;4.61;82.44;100325.28;5036545;28;20038;-58
2022/01/28 11:07:00;;;;;;;1.35;0.82;;;;;;;4.55;83.10;100294.91;5045807;28;20037;-59
2022/01/28 11:09:26;;;;;;;1.42;0.50;;;;;;;4.37;85.94;100311.34;5042464;28;20083;-59
2022/01/28 11:11:53;;;;;;;1.30;0.50;;;;;;;4.19;87.64;100326.91;5052137;28;20032;-59
2022/01/28 11:14:20;;;;;;;3.60;1.63;;;;;;;4.24;90.39;100324.31;5043660;28;20045;-59
2022/01/28 11:16:46;;;;;;;12.10;7.57;;;;;;;4.02;93.21;100337.22;5054880;28;20036;-59
2022/01/28 11:19:15;;;;;;;9.90;6.78;;;;;;;3.96;96.02;100342.41;5055285;28;20029;-59
2022/01/28 11:21:46;;;;;;;9.13;6.32;;;;;;;3.84;96.51;100339.75;5055535;28;20063;-59
2022/01/28 11:24:34;;;;;;;7.55;5.57;;;;;;;3.86;94.24;100353.59;5053989;28;20033;-60
2022/01/28 11:27:23;;;;;;;1.50;0.60;;;;;;;3.88;93.71;100354.50;5049973;28;20049;-59
2022/01/28 11:29:49;;;;;;;2.90;1.42;;;;;;;3.79;93.72;100341.44;5050895;28;20561;-62
2022/01/28 11:32:17;;;;;;;0.90;0.50;;;;;;;3.99;92.17;100345.03;5044076;28;20025;-60
2022/01/28 11:35:04;;;;;;;3.03;1.67;;;;;;;4.32;91.59;100359.88;5045037;28;20057;-59
2022/01/28 11:37:32;;;;;;;3.03;1.30;;;;;;;4.45;91.61;100352.97;5044537;28;20038;-61
2022/01/28 11:40:12;;;;;;;1.80;0.80;;;;;;;4.41;88.60;100364.25;5047220;28;20477;-61
2022/01/28 11:42:38;;;;;;;2.17;0.93;;;;;;;4.37;88.33;100398.94;5045208;28;20108;-61
2022/01/28 11:45:06;;;;;;;2.90;1.30;;;;;;;4.13;90.47;100390.16;5043737;28;20125;-61
2022/01/28 11:47:38;;;;;;;3.85;1.50;;;;;;;4.09;91.15;100380.59;5042855;28;20025;-61
2022/01/28 11:50:16;;;;;;;3.90;1.33;;;;;;;3.94;92.43;100398.72;5043653;28;20033;-61
2022/01/28 11:52:42;;;;;;;2.55;1.02;;;;;;;3.94;93.76;100398.72;5051750;28;20032;-60
2022/01/28 11:55:29;;;;;;;1.85;0.95;;;;;;;3.89;92.97;100429.03;5054884;28;20056;-60
2022/01/28 11:57:57;;;;;;;3.53;1.27;;;;;;;3.91;92.68;100415.19;5045809;28;20025;-60
2022/01/28 12:00:32;;;;;;;3.92;1.65;;;;;;;4.00;92.46;100423.91;5051160;28;20021;-60
2022/01/28 12:02:58;;;;;;;1.52;0.80;;;;;;;4.02;89.95;100412.63;5043328;28;20094;-60
2022/01/28 12:05:25;;;;;;;2.90;1.02;;;;;;;4.01;87.72;100416.09;5047676;28;20037;-60
2022/01/28 12:07:52;;;;;;;5.10;2.30;;;;;;;4.12;84.96;100413.56;5044176;28;20040;-60
2022/01/28 12:10:18;;;;;;;2.30;1.08;;;;;;;4.11;83.78;100428.28;5041754;28;20025;-59
2022/01/28 12:12:45;;;;;;;3.08;1.38;;;;;;;4.23;79.00;100445.69;5053993;28;20121;-60
2022/01/28 12:15:17;;;;;;;4.10;1.83;;;;;;;4.22;78.94;100432.66;5054183;28;20037;-60
2022/01/28 12:17:50;;;;;;;1.35;0.60;;;;;;;3.97;81.65;100455.94;5047998;28;20086;-60
2022/01/28 12:20:15;;;;;;;3.13;0.65;;;;;;;3.69;89.11;100470.47;5039898;28;20045;-60
2022/01/28 12:22:59;;;;;;;3.00;0.70;;;;;;;3.39;92.29;100489.25;5042486;28;20427;-60
2022/01/28 12:25:36;;;;;;;2.42;0.65;;;;;;;3.11;93.64;100508.88;5036518;28;20033;-60
2022/01/28 12:28:27;;;;;;;4.53;2.05;;;;;;;3.18;94.49;100493.38;5045048;28;20763;-60
2022/01/28 12:31:12;;;;;;;1.73;1.48;;;;;;;3.13;93.18;100505.47;5042625;28;20037;-60
2022/01/28 12:33:43;;;;;;;15.13;8.65;;;;;;;3.19;94.30;100509.81;5046295;28;20048;-60
2022/01/28 12:36:38;;;;;;;2.70;0.90;;;;;;;3.11;85.99;100524.47;5052247;28;20035;-60
2022/01/28 12:39:20;;;;;;;1.83;0.88;;;;;;;3.10;86.26;100520.13;5048371;28;20033;-59
2022/01/28 12:42:04;;;;;;;3.35;1.35;;;;;;;3.00;82.65;100532.16;5043054;28;20029;-59
2022/01/28 12:44:32;;;;;;;2.75;0.95;;;;;;;3.11;84.19;100525.34;5042260;28;20048;-59
2022/01/28 12:47:03;;;;;;;5.00;1.48;;;;;;;3.12;82.99;100537.47;5033056;28;20030;-59
2022/01/28 12:49:32;;;;;;;7.32;4.50;;;;;;;3.18;82.19;100547.91;5035902;28;20393;-60
2022/01/28 12:52:06;;;;;;;3.22;1.33;;;;;;;3.34;81.60;100540.28;5044775;28;20112;-61
2022/01/28 12:54:37;;;;;;;1.95;0.90;;;;;;;3.41;81.75;100555.97;5042084;28;20392;-61
2022/01/28 12:57:04;;;;;;;1.75;0.90;;;;;;;3.42;78.49;100549.03;5045823;28;20099;-61
2022/01/28 12:59:30;;;;;;;4.13;1.20;;;;;;;3.35;77.57;100553.31;5042129;28;20040;-61
2022/01/28 13:01:56;;;;;;;1.52;0.40;;;;;;;3.35;76.10;100570.59;5042740;28;20045;-61
2022/01/28 13:04:25;;;;;;;2.10;0.70;;;;;;;3.32;75.99;100562.78;5041155;28;20053;-61
2022/01/28 13:09:19;;;;;;;2.28;0.77;;;;;;;3.35;74.50;100588.78;5053291;28;20488;-59
2022/01/28 13:11:56;;;;;;;2.13;0.80;;;;;;;3.32;72.85;100575.78;5053018;28;20025;-59
2022/01/28 13:14:32;;;;;;;3.25;0.80;;;;;;;3.46;73.64;100579.38;5053370;28;20063;-60